createdAt,value
2022-09-21T00:01:42.781Z,7.78
2022-09-21T00:04:11.996Z,7.80
2022-09-21T00:06:40.639Z,7.80
2022-09-21T00:09:09.941Z,7.80
2022-09-21T00:11:39.078Z,7.80
2022-09-21T00:14:14.660Z,7.70
2022-09-21T00:16:44.143Z,7.70
2022-09-21T00:19:12.780Z,7.70
2022-09-21T00:21:42.700Z,7.60
2022-09-21T00:24:12.654Z,7.60
2022-09-21T00:26:41.091Z,7.60
2022-09-21T00:29:11.315Z,7.60
2022-09-21T00:31:40.645Z,7.60
2022-09-21T00:34:09.243Z,7.60
2022-09-21T00:36:38.194Z,7.50
2022-09-21T00:39:07.086Z,7.40
2022-09-21T00:41:36.385Z,7.34
2022-09-21T00:44:32.620Z,7.40
2022-09-21T00:47:23.837Z,7.40
2022-09-21T00:49:55.894Z,7.40
2022-09-21T00:52:27.556Z,7.40
2022-09-21T00:55:08.435Z,7.36
2022-09-21T00:57:38.549Z,7.28
2022-09-21T01:00:11.037Z,7.12
2022-09-21T01:02:39.918Z,7.12
2022-09-21T01:05:10.701Z,7.18
2022-09-21T01:07:43.984Z,7.20
2022-09-21T01:10:17.025Z,7.20
2022-09-21T01:13:26.068Z,7.20
2022-09-21T01:16:44.579Z,7.20
2022-09-21T01:19:50.183Z,7.20
2022-09-21T01:22:43.135Z,7.16
2022-09-21T01:25:33.429Z,7.20
2022-09-21T01:28:14.095Z,7.18
2022-09-21T01:30:48.953Z,7.12
2022-09-21T01:33:27.812Z,7.02
2022-09-21T01:36:10.876Z,6.92
2022-09-21T01:39:10.081Z,6.90
2022-09-21T01:41:42.077Z,7.00
2022-09-21T01:44:20.224Z,7.00
2022-09-21T01:46:51.010Z,6.94
2022-09-21T01:49:37.636Z,6.90
2022-09-21T01:52:17.074Z,6.86
2022-09-21T01:55:04.459Z,6.70
2022-09-21T01:58:14.210Z,6.70
2022-09-21T02:00:46.867Z,6.60
2022-09-21T02:03:52.133Z,6.64
2022-09-21T02:06:21.330Z,6.62
2022-09-21T02:08:49.915Z,6.60
2022-09-21T02:11:19.099Z,6.60
2022-09-21T02:13:52.650Z,6.60
2022-09-21T02:16:40.450Z,6.50
2022-09-21T02:19:29.923Z,6.50
2022-09-21T02:22:10.715Z,6.40
2022-09-21T02:25:26.515Z,6.40
2022-09-21T02:28:26.544Z,6.40
2022-09-21T02:31:38.771Z,6.50
2022-09-21T02:34:55.743Z,6.50
2022-09-21T02:37:56.940Z,6.50
2022-09-21T02:40:31.590Z,6.50
2022-09-21T02:43:12.488Z,6.50
2022-09-21T02:45:51.723Z,6.50
2022-09-21T02:48:36.291Z,6.40
2022-09-21T02:51:15.414Z,6.40
2022-09-21T02:53:47.037Z,6.40
2022-09-21T02:56:17.290Z,6.50
2022-09-21T02:58:54.754Z,6.50
2022-09-21T03:01:26.298Z,6.50
2022-09-21T03:03:55.232Z,6.48
2022-09-21T03:06:23.814Z,6.40
2022-09-21T03:08:53.116Z,6.40
2022-09-21T03:11:21.598Z,6.40
2022-09-21T03:13:50.183Z,6.40
2022-09-21T03:16:18.911Z,6.30
2022-09-21T03:18:47.554Z,6.20
2022-09-21T03:21:16.136Z,6.20
2022-09-21T03:23:44.619Z,6.20
2022-09-21T03:26:13.221Z,6.20
2022-09-21T03:28:41.686Z,6.20
2022-09-21T03:31:10.639Z,6.20
2022-09-21T03:33:39.162Z,6.20
2022-09-21T03:36:08.366Z,6.20
2022-09-21T03:38:37.994Z,6.30
2022-09-21T03:41:06.758Z,6.30
2022-09-21T03:43:35.242Z,6.30
2022-09-21T03:46:03.750Z,6.30
2022-09-21T03:48:32.966Z,6.36
2022-09-21T03:51:01.505Z,6.40
2022-09-21T03:53:30.089Z,6.40
2022-09-21T03:55:58.673Z,6.40
2022-09-21T03:58:27.165Z,6.50
2022-09-21T04:01:02.644Z,6.50
2022-09-21T04:03:31.495Z,6.42
2022-09-21T04:06:00.282Z,6.40
2022-09-21T04:08:28.763Z,6.40
2022-09-21T04:10:57.348Z,6.40
2022-09-21T04:13:25.829Z,6.30
2022-09-21T04:15:54.452Z,6.30
2022-09-21T04:18:23.104Z,6.30
2022-09-21T04:20:51.583Z,6.40
2022-09-21T04:23:20.215Z,6.48
2022-09-21T04:25:52.952Z,6.50
2022-09-21T04:28:23.073Z,6.60
2022-09-21T04:30:56.089Z,6.60
2022-09-21T04:33:24.745Z,6.60
2022-09-21T04:35:56.708Z,6.60
2022-09-21T04:38:25.294Z,6.60
2022-09-21T04:40:59.919Z,6.62
2022-09-21T04:43:28.401Z,6.70
2022-09-21T04:45:57.038Z,6.64
2022-09-21T04:48:25.673Z,6.60
2022-09-21T04:50:54.155Z,6.70
2022-09-21T04:53:22.638Z,6.70
2022-09-21T04:55:51.425Z,6.80
2022-09-21T04:58:24.264Z,6.70
2022-09-21T05:00:55.490Z,6.70
2022-09-21T05:03:26.192Z,6.70
2022-09-21T05:05:57.322Z,6.80
2022-09-21T05:08:46.403Z,6.84
2022-09-21T05:11:20.676Z,6.90
2022-09-21T05:13:49.271Z,6.90
2022-09-21T05:16:19.116Z,6.90
2022-09-21T05:18:48.340Z,6.94
2022-09-21T05:21:16.797Z,7.00
2022-09-21T05:23:45.483Z,7.10
2022-09-21T05:26:13.965Z,7.10
2022-09-21T05:28:43.151Z,7.20
2022-09-21T05:31:18.455Z,7.24
2022-09-21T05:34:34.323Z,7.30
2022-09-21T05:37:38.420Z,7.40
2022-09-21T05:40:10.225Z,7.40
2022-09-21T05:42:39.475Z,7.40
2022-09-21T05:45:15.815Z,7.40
2022-09-21T05:47:50.469Z,7.40
2022-09-21T05:51:02.267Z,7.40
2022-09-21T05:53:47.443Z,7.40
2022-09-21T05:56:34.253Z,7.50
2022-09-21T05:59:30.382Z,7.60
2022-09-21T06:02:09.062Z,7.70
2022-09-21T06:04:38.405Z,7.70
2022-09-21T06:07:06.887Z,7.80
2022-09-21T06:09:36.471Z,7.90
2022-09-21T06:12:07.539Z,7.92
2022-09-21T06:14:36.021Z,8.00
2022-09-21T06:17:05.423Z,8.00
2022-09-21T06:19:34.315Z,8.10
2022-09-21T06:22:02.797Z,8.10
2022-09-21T06:24:31.281Z,8.20
2022-09-21T06:26:59.770Z,8.20
2022-09-21T06:29:28.244Z,8.30
2022-09-21T06:31:56.725Z,8.32
2022-09-21T06:34:25.309Z,8.40
2022-09-21T06:36:53.910Z,8.50
2022-09-21T06:39:22.490Z,8.60
2022-09-21T06:41:52.703Z,8.70
2022-09-21T06:44:24.051Z,8.80
2022-09-21T06:46:52.533Z,9.00
2022-09-21T06:49:21.015Z,9.10
2022-09-21T06:51:49.806Z,9.24
2022-09-21T06:54:18.797Z,9.36
2022-09-21T06:56:47.690Z,9.50
2022-09-21T06:59:16.172Z,9.60
2022-09-21T07:01:44.742Z,9.80
2022-09-21T07:04:13.448Z,9.90
2022-09-21T07:06:41.925Z,10.00
2022-09-21T07:11:58.858Z,10.30
2022-09-21T07:14:27.544Z,10.30
2022-09-21T07:16:56.027Z,10.40
2022-09-21T07:19:24.436Z,10.40
2022-09-21T07:21:56.372Z,10.50
2022-09-21T07:24:24.850Z,10.60
2022-09-21T07:26:53.538Z,10.70
2022-09-21T07:29:22.044Z,10.80
2022-09-21T07:31:50.873Z,10.90
2022-09-21T07:34:19.495Z,11.06
2022-09-21T07:36:48.080Z,11.26
2022-09-21T07:39:16.767Z,11.52
2022-09-21T07:41:45.251Z,11.80
2022-09-21T07:44:13.733Z,12.00
2022-09-21T07:46:47.789Z,12.20
2022-09-21T07:49:16.634Z,12.40
2022-09-21T07:51:45.123Z,12.60
2022-09-21T07:54:15.415Z,12.82
2022-09-21T07:57:04.096Z,13.10
2022-09-21T07:59:33.193Z,13.30
2022-09-21T08:02:01.708Z,13.62
2022-09-21T08:04:30.362Z,13.90
2022-09-21T08:06:58.846Z,14.00
2022-09-21T08:09:27.326Z,14.24
2022-09-21T08:11:56.015Z,15.14
2022-09-21T08:14:26.600Z,15.44
2022-09-21T08:16:55.536Z,16.98
2022-09-21T08:19:26.078Z,18.42
2022-09-21T08:21:57.646Z,19.16
2022-09-21T08:24:27.057Z,19.20
2022-09-21T08:26:56.223Z,19.10
2022-09-21T08:29:25.940Z,19.20
2022-09-21T08:31:54.677Z,19.08
2022-09-21T08:34:24.441Z,19.10
2022-09-21T08:36:55.445Z,19.84
2022-09-21T08:39:24.781Z,20.20
2022-09-21T08:42:17.531Z,20.32
2022-09-21T08:45:10.419Z,20.30
2022-09-21T08:47:45.529Z,20.10
2022-09-21T08:50:30.902Z,19.86
2022-09-21T08:53:16.378Z,19.70
2022-09-21T08:55:44.866Z,19.36
2022-09-21T08:58:27.332Z,19.10
2022-09-21T09:01:20.847Z,18.80
2022-09-21T09:04:34.994Z,18.40
2022-09-21T09:07:42.799Z,18.38
2022-09-21T09:10:35.448Z,18.30
2022-09-21T09:13:41.945Z,18.14
2022-09-21T09:17:03.751Z,18.30
2022-09-21T09:20:09.304Z,18.82
2022-09-21T09:23:21.162Z,19.38
2022-09-21T09:26:06.684Z,20.30
2022-09-21T09:29:01.394Z,21.16
2022-09-21T09:31:35.452Z,21.40
2022-09-21T09:34:29.781Z,21.40
2022-09-21T09:37:10.758Z,21.60
2022-09-21T09:39:41.636Z,21.86
2022-09-21T09:42:34.551Z,22.32
2022-09-21T09:45:24.719Z,22.80
2022-09-21T09:47:54.042Z,22.80
2022-09-21T09:50:30.268Z,22.94
2022-09-21T09:53:16.906Z,22.94
2022-09-21T09:55:55.805Z,22.80
2022-09-21T09:58:38.868Z,23.30
2022-09-21T10:01:07.758Z,23.70
2022-09-21T10:03:36.488Z,23.94
2022-09-21T10:06:05.230Z,24.12
2022-09-21T10:08:46.955Z,24.10
2022-09-21T10:11:17.078Z,24.30
2022-09-21T10:13:49.736Z,24.40
2022-09-21T10:16:18.171Z,24.62
2022-09-21T10:19:03.844Z,24.34
2022-09-21T10:21:39.853Z,23.16
2022-09-21T10:24:13.859Z,22.26
2022-09-21T10:26:50.055Z,21.80
2022-09-21T10:29:25.466Z,21.38
2022-09-21T10:32:19.858Z,20.80
2022-09-21T10:35:15.445Z,20.18
2022-09-21T10:37:48.769Z,19.80
2022-09-21T10:40:20.383Z,19.60
2022-09-21T10:42:52.697Z,19.50
2022-09-21T10:45:31.809Z,19.50
2022-09-21T10:48:23.564Z,19.40
2022-09-21T10:50:54.727Z,19.20
2022-09-21T10:53:31.513Z,19.20
2022-09-21T10:56:15.884Z,19.18
2022-09-21T10:59:31.826Z,19.00
2022-09-21T11:02:02.889Z,18.90
2022-09-21T11:04:46.929Z,18.80
2022-09-21T11:07:18.186Z,18.70
2022-09-21T11:10:34.188Z,18.52
2022-09-21T11:13:09.297Z,18.40
2022-09-21T11:15:58.932Z,18.30
2022-09-21T11:18:48.965Z,18.30
2022-09-21T11:21:45.095Z,18.20
2022-09-21T11:24:22.687Z,18.10
2022-09-21T11:27:36.234Z,18.18
2022-09-21T11:30:14.951Z,18.20
2022-09-21T11:33:02.724Z,18.20
2022-09-21T11:36:05.161Z,18.28
2022-09-21T11:38:49.003Z,18.24
2022-09-21T11:41:26.190Z,18.32
2022-09-21T11:44:32.560Z,18.58
2022-09-21T11:47:23.366Z,18.80
2022-09-21T11:50:32.529Z,19.00
2022-09-21T11:53:32.677Z,19.40
2022-09-21T11:56:27.423Z,19.60
2022-09-21T11:59:07.228Z,19.50
2022-09-21T12:01:56.988Z,19.40
2022-09-21T12:05:13.770Z,19.20
2022-09-21T12:08:28.537Z,18.64
2022-09-21T12:11:41.868Z,17.90
2022-09-21T12:14:42.916Z,17.50
2022-09-21T12:17:14.469Z,17.34
2022-09-21T12:20:14.284Z,17.20
2022-09-21T12:22:46.937Z,17.30
2022-09-21T12:25:32.448Z,17.32
2022-09-21T12:28:24.992Z,17.50
2022-09-21T12:31:01.910Z,17.70
2022-09-21T12:33:41.118Z,17.80
2022-09-21T12:36:35.940Z,17.92
2022-09-21T12:39:33.367Z,17.92
2022-09-21T12:42:29.296Z,18.10
2022-09-21T12:45:22.349Z,18.50
2022-09-21T12:48:04.917Z,18.90
2022-09-21T12:50:49.012Z,19.10
2022-09-21T12:53:22.622Z,19.10
2022-09-21T12:56:09.989Z,19.10
2022-09-21T12:59:26.652Z,19.20
2022-09-21T13:02:20.399Z,19.40
2022-09-21T13:05:16.556Z,19.40
2022-09-21T13:08:01.526Z,19.44
2022-09-21T13:10:31.765Z,19.50
2022-09-21T13:13:04.250Z,19.50
2022-09-21T13:15:51.341Z,19.32
2022-09-21T13:18:36.335Z,19.10
2022-09-21T13:21:30.130Z,18.90
2022-09-21T13:24:02.374Z,18.70
2022-09-21T13:26:36.266Z,18.68
2022-09-21T13:29:20.209Z,18.40
2022-09-21T13:32:22.549Z,18.20
2022-09-21T13:34:51.786Z,18.30
2022-09-21T13:37:20.164Z,18.30
2022-09-21T13:39:50.593Z,18.40
2022-09-21T13:42:34.957Z,18.58
2022-09-21T13:45:27.429Z,18.70
2022-09-21T13:48:00.313Z,18.92
2022-09-21T13:50:43.812Z,19.10
2022-09-21T13:53:20.179Z,19.20
2022-09-21T13:56:00.777Z,19.20
2022-09-21T13:58:46.547Z,19.20
2022-09-21T14:01:46.860Z,19.30
2022-09-21T14:04:27.838Z,19.40
2022-09-21T14:06:58.381Z,19.20
2022-09-21T14:09:37.189Z,19.00
2022-09-21T14:12:19.496Z,18.80
2022-09-21T14:15:28.118Z,18.70
2022-09-21T14:18:16.673Z,18.50
2022-09-21T14:21:08.099Z,18.40
2022-09-21T14:23:39.456Z,18.30
2022-09-21T14:26:40.281Z,18.20
2022-09-21T14:30:06.034Z,18.16
2022-09-21T14:32:44.662Z,18.02
2022-09-21T14:35:26.734Z,17.94
2022-09-21T14:38:14.876Z,17.90
2022-09-21T14:40:52.525Z,17.86
2022-09-21T14:43:29.165Z,17.90
2022-09-21T14:46:25.313Z,17.90
2022-09-21T14:49:19.582Z,17.80
2022-09-21T14:52:16.633Z,17.70
2022-09-21T14:55:37.833Z,17.50
2022-09-21T14:58:41.689Z,17.20
2022-09-21T15:01:31.735Z,17.00
2022-09-21T15:04:16.917Z,16.84
2022-09-21T15:07:25.630Z,16.70
2022-09-21T15:10:24.730Z,16.58
2022-09-21T15:13:05.402Z,16.50
2022-09-21T15:16:07.508Z,16.40
2022-09-21T15:18:42.169Z,16.40
2022-09-21T15:21:33.086Z,16.30
2022-09-21T15:24:17.354Z,16.30
2022-09-21T15:26:47.174Z,16.32
2022-09-21T15:29:32.089Z,16.30
2022-09-21T15:32:01.868Z,16.40
2022-09-21T15:34:30.532Z,16.40
2022-09-21T15:37:17.754Z,16.40
2022-09-21T15:39:46.439Z,16.40
2022-09-21T15:42:23.266Z,16.30
2022-09-21T15:45:15.659Z,16.30
2022-09-21T15:47:45.303Z,16.30
2022-09-21T15:50:17.516Z,16.24
2022-09-21T15:52:57.191Z,16.20
2022-09-21T15:55:26.058Z,16.20
2022-09-21T15:57:59.178Z,16.20
2022-09-21T16:00:35.204Z,16.12
2022-09-21T16:03:22.900Z,16.10
2022-09-21T16:05:55.587Z,16.00
2022-09-21T16:08:30.878Z,16.00
2022-09-21T16:11:13.596Z,16.00
2022-09-21T16:14:16.382Z,15.92
2022-09-21T16:17:13.853Z,15.90
2022-09-21T16:19:51.130Z,15.80
2022-09-21T16:22:38.045Z,15.80
2022-09-21T16:25:30.286Z,15.72
2022-09-21T16:28:18.126Z,15.66
2022-09-21T16:30:49.511Z,15.50
2022-09-21T16:33:47.648Z,15.40
2022-09-21T16:36:25.857Z,15.30
2022-09-21T16:38:54.579Z,15.24
2022-09-21T16:41:29.574Z,15.20
2022-09-21T16:44:00.660Z,15.20
2022-09-21T16:46:32.074Z,15.10
2022-09-21T16:49:01.071Z,15.00
2022-09-21T16:51:29.551Z,14.90
2022-09-21T16:53:58.894Z,14.80
2022-09-21T16:56:27.435Z,14.70
2022-09-21T16:58:57.454Z,14.70
2022-09-21T17:01:26.951Z,14.66
2022-09-21T17:03:57.080Z,14.60
2022-09-21T17:06:25.664Z,14.50
2022-09-21T17:08:55.102Z,14.50
2022-09-21T17:11:24.296Z,14.40
2022-09-21T17:13:53.671Z,14.30
2022-09-21T17:16:22.440Z,14.28
2022-09-21T17:18:51.148Z,14.20
2022-09-21T17:21:19.631Z,14.16
2022-09-21T17:23:48.212Z,14.10
2022-09-21T17:26:19.550Z,14.08
2022-09-21T17:28:48.352Z,13.98
2022-09-21T17:31:17.116Z,13.90
2022-09-21T17:33:47.947Z,13.80
2022-09-21T17:36:18.565Z,13.70
2022-09-21T17:38:47.094Z,13.60
2022-09-21T17:41:26.390Z,13.50
2022-09-21T17:44:17.485Z,13.40
2022-09-21T17:47:16.845Z,13.32
2022-09-21T17:49:47.656Z,13.30
2022-09-21T17:52:41.979Z,13.20
2022-09-21T17:55:13.565Z,13.10
2022-09-21T17:57:56.966Z,13.02
2022-09-21T18:00:58.105Z,13.00
2022-09-21T18:03:36.112Z,13.00
2022-09-21T18:06:05.514Z,12.90
2022-09-21T18:08:36.517Z,12.90
2022-09-21T18:12:02.075Z,12.90
2022-09-21T18:15:03.121Z,12.88
2022-09-21T18:17:58.785Z,12.80
2022-09-21T18:21:02.549Z,12.80
2022-09-21T18:23:56.474Z,12.80
2022-09-21T18:26:26.503Z,12.74
2022-09-21T18:29:00.081Z,12.70
2022-09-21T18:31:58.328Z,12.70
2022-09-21T18:34:45.043Z,12.62
2022-09-21T18:37:41.679Z,12.60
2022-09-21T18:40:34.014Z,12.60
2022-09-21T18:43:58.725Z,12.60
2022-09-21T18:46:56.491Z,12.50
2022-09-21T18:49:33.063Z,12.50
2022-09-21T18:52:58.494Z,12.50
2022-09-21T18:55:32.948Z,12.40
2022-09-21T18:58:02.154Z,12.40
2022-09-21T19:00:31.936Z,12.40
2022-09-21T19:03:17.485Z,12.40
2022-09-21T19:06:06.159Z,12.34
2022-09-21T19:08:51.325Z,12.40
2022-09-21T19:12:05.787Z,12.40
2022-09-21T19:14:57.411Z,12.40
2022-09-21T19:17:57.434Z,12.40
2022-09-21T19:20:43.730Z,12.40
2022-09-21T19:23:49.488Z,12.38
2022-09-21T19:27:07.122Z,12.30
2022-09-21T19:30:07.190Z,12.30
2022-09-21T19:32:44.953Z,12.30
2022-09-21T19:35:23.297Z,12.40
2022-09-21T19:37:55.510Z,12.40
2022-09-21T19:40:28.551Z,12.40
2022-09-21T19:43:34.168Z,12.40
2022-09-21T19:46:33.847Z,12.40
2022-09-21T19:49:20.745Z,12.40
2022-09-21T19:51:56.208Z,12.40
2022-09-21T19:54:44.899Z,12.50
2022-09-21T19:57:36.215Z,12.50
2022-09-21T20:00:12.743Z,12.50
2022-09-21T20:03:11.377Z,12.50
2022-09-21T20:06:04.845Z,12.54
2022-09-21T20:09:06.615Z,12.60
2022-09-21T20:11:51.385Z,12.64
2022-09-21T20:14:42.074Z,12.70
2022-09-21T20:17:22.399Z,12.72
2022-09-21T20:19:56.241Z,12.76
2022-09-21T20:22:39.982Z,12.78
2022-09-21T20:25:10.021Z,12.70
2022-09-21T20:27:42.781Z,12.70
2022-09-21T20:30:16.120Z,12.70
2022-09-21T20:32:50.692Z,12.70
2022-09-21T20:35:26.464Z,12.70
2022-09-21T20:38:01.922Z,12.60
2022-09-21T20:40:32.595Z,12.60
2022-09-21T20:43:01.529Z,12.60
2022-09-21T20:45:31.957Z,12.68
2022-09-21T20:48:13.542Z,12.70
2022-09-21T20:50:49.251Z,12.70
2022-09-21T20:53:19.812Z,12.70
2022-09-21T20:55:57.429Z,12.80
2022-09-21T20:58:26.536Z,12.80
2022-09-21T21:00:59.010Z,12.70
2022-09-21T21:03:28.513Z,12.70
2022-09-21T21:06:13.072Z,12.74
2022-09-21T21:08:41.935Z,12.70
2022-09-21T21:11:14.837Z,12.60
2022-09-21T21:13:44.472Z,12.60
2022-09-21T21:16:13.683Z,12.50
2022-09-21T21:18:42.705Z,12.50
2022-09-21T21:21:12.453Z,12.40
2022-09-21T21:23:59.844Z,12.40
2022-09-21T21:26:50.345Z,12.40
2022-09-21T21:29:17.217Z,12.40
2022-09-21T21:31:50.264Z,12.40
2022-09-21T21:34:19.206Z,12.40
2022-09-21T21:36:48.705Z,12.40
2022-09-21T21:39:17.392Z,12.40
2022-09-21T21:41:45.977Z,12.40
2022-09-21T21:44:15.963Z,12.34
2022-09-21T21:46:44.784Z,12.38
2022-09-21T21:49:13.986Z,12.34
2022-09-21T21:51:44.208Z,12.30
2022-09-21T21:54:13.199Z,12.30
2022-09-21T21:56:41.684Z,12.30
2022-09-21T21:59:14.175Z,12.30
2022-09-21T22:01:45.846Z,12.30
2022-09-21T22:04:15.217Z,12.28
2022-09-21T22:06:43.946Z,12.30
2022-09-21T22:09:14.966Z,12.30
2022-09-21T22:11:43.703Z,12.30
2022-09-21T22:14:13.085Z,12.30
2022-09-21T22:16:41.965Z,12.26
2022-09-21T22:19:10.938Z,12.20
2022-09-21T22:21:48.199Z,12.20
2022-09-21T22:24:21.247Z,12.20
2022-09-21T22:26:49.923Z,12.14
2022-09-21T22:29:18.471Z,12.10
2022-09-21T22:31:50.080Z,12.10
2022-09-21T22:34:19.958Z,12.10
2022-09-21T22:36:48.625Z,12.10
2022-09-21T22:39:17.209Z,12.10
2022-09-21T22:41:45.794Z,12.00
2022-09-21T22:44:14.482Z,11.90
2022-09-21T22:46:43.194Z,11.90
2022-09-21T22:49:12.171Z,11.90
2022-09-21T22:51:40.980Z,11.90
2022-09-21T22:54:09.739Z,11.80
2022-09-21T22:56:38.532Z,11.80
2022-09-21T22:59:07.654Z,11.80
2022-09-21T23:01:39.909Z,11.80
2022-09-21T23:04:14.029Z,11.76
2022-09-21T23:06:45.479Z,11.70
2022-09-21T23:09:18.771Z,11.62
2022-09-21T23:11:54.204Z,11.60
2022-09-21T23:14:23.611Z,11.60
2022-09-21T23:16:53.316Z,11.60
2022-09-21T23:19:21.912Z,11.60
2022-09-21T23:21:51.919Z,11.60
2022-09-21T23:24:21.324Z,11.60
2022-09-21T23:26:53.388Z,11.50
2022-09-21T23:29:22.218Z,11.50
2022-09-21T23:31:50.708Z,11.50
2022-09-21T23:34:19.656Z,11.50
2022-09-21T23:36:48.459Z,11.40
2022-09-21T23:39:17.043Z,11.38
2022-09-21T23:41:46.025Z,11.30
2022-09-21T23:44:14.707Z,11.30
2022-09-21T23:46:43.449Z,11.30
2022-09-21T23:49:12.596Z,11.30
2022-09-21T23:51:41.690Z,11.30
2022-09-21T23:54:10.376Z,11.30
2022-09-21T23:56:39.187Z,11.24
2022-09-21T23:59:09.082Z,11.20
